createdAt,value
2022-12-16T00:01:04.598Z,82.48
2022-12-16T00:05:08.462Z,82.48
2022-12-16T00:10:08.386Z,82.48
2022-12-16T00:15:08.227Z,82.49
2022-12-16T00:20:08.039Z,82.49
2022-12-16T00:25:07.843Z,82.47
2022-12-16T00:30:07.994Z,82.46
2022-12-16T00:35:07.799Z,82.46
2022-12-16T00:40:08.582Z,82.43
2022-12-16T00:45:08.379Z,82.45
2022-12-16T00:50:08.231Z,82.44
2022-12-16T00:55:07.997Z,82.46
2022-12-16T01:00:07.790Z,82.44
2022-12-16T01:05:08.338Z,82.44
2022-12-16T01:10:08.139Z,82.44
2022-12-16T01:15:08.265Z,82.44
2022-12-16T01:20:08.079Z,82.44
2022-12-16T01:25:07.865Z,82.44
2022-12-16T01:30:08.215Z,82.46
2022-12-16T01:35:29.411Z,82.43
2022-12-16T01:40:07.905Z,82.44
2022-12-16T01:45:18.139Z,82.44
2022-12-16T01:50:07.993Z,82.45
2022-12-16T01:55:07.788Z,82.46
2022-12-16T02:00:08.609Z,82.45
2022-12-16T02:05:08.427Z,82.47
2022-12-16T02:10:08.236Z,82.47
2022-12-16T02:15:08.036Z,82.47
2022-12-16T02:20:07.860Z,82.46
2022-12-16T02:25:08.648Z,82.49
2022-12-16T02:30:08.437Z,82.46
2022-12-16T02:35:08.228Z,82.47
2022-12-16T02:40:08.042Z,82.46
2022-12-16T02:45:08.312Z,82.47
2022-12-16T02:50:08.161Z,82.47
2022-12-16T02:55:07.984Z,82.46
2022-12-16T03:00:07.768Z,82.48
2022-12-16T03:05:08.548Z,82.48
2022-12-16T03:10:08.330Z,82.49
2022-12-16T03:15:08.089Z,82.48
2022-12-16T03:20:07.903Z,82.5
2022-12-16T03:25:08.707Z,82.51
2022-12-16T03:30:08.503Z,82.49
2022-12-16T03:35:08.327Z,82.5
2022-12-16T03:40:08.170Z,82.49
2022-12-16T03:45:07.986Z,82.52
2022-12-16T03:50:07.807Z,82.51
2022-12-16T03:55:08.627Z,82.51
2022-12-16T04:00:08.422Z,82.52
2022-12-16T04:05:08.171Z,82.53
2022-12-16T04:10:07.971Z,82.54
2022-12-16T04:15:07.755Z,82.53
2022-12-16T04:20:08.555Z,82.52
2022-12-16T04:25:08.399Z,82.55
2022-12-16T04:30:08.209Z,82.55
2022-12-16T04:35:08.044Z,82.56
2022-12-16T04:40:07.835Z,82.53
2022-12-16T04:45:08.677Z,82.56
2022-12-16T04:50:08.516Z,82.56
2022-12-16T04:55:18.314Z,82.54
2022-12-16T05:00:08.156Z,82.58
2022-12-16T05:05:01.992Z,82.57
2022-12-16T05:10:01.802Z,82.58
2022-12-16T05:15:02.674Z,82.57
2022-12-16T05:20:06.961Z,82.58
2022-12-16T05:25:01.809Z,82.59
2022-12-16T05:30:02.678Z,82.6
2022-12-16T05:35:02.639Z,82.61
2022-12-16T05:40:02.583Z,82.59
2022-12-16T05:45:02.465Z,82.61
2022-12-16T05:50:12.493Z,82.66
2022-12-16T05:55:02.573Z,82.64
2022-12-16T06:00:02.580Z,82.61
2022-12-16T06:05:02.666Z,82.61
2022-12-16T06:10:02.957Z,82.61
2022-12-16T06:15:02.314Z,82.6
2022-12-16T06:20:02.304Z,82.59
2022-12-16T06:25:02.425Z,82.61
2022-12-16T06:30:02.466Z,82.6
2022-12-16T06:35:02.628Z,82.59
2022-12-16T06:40:02.660Z,82.61
2022-12-16T06:45:08.359Z,82.63
2022-12-16T06:50:02.312Z,82.64
2022-12-16T06:55:02.225Z,82.62
2022-12-16T07:00:02.136Z,82.62
2022-12-16T07:05:02.170Z,82.65
2022-12-16T07:10:02.030Z,82.64
2022-12-16T07:15:11.931Z,82.63
2022-12-16T07:20:01.882Z,82.66
2022-12-16T07:25:02.845Z,82.66
2022-12-16T07:30:02.850Z,82.67
2022-12-16T07:35:02.846Z,82.67
2022-12-16T07:40:02.707Z,82.65
2022-12-16T07:45:12.511Z,82.66
2022-12-16T07:50:02.416Z,82.66
2022-12-16T07:55:02.348Z,82.67
2022-12-16T08:00:02.294Z,82.67
2022-12-16T08:05:02.196Z,82.69
2022-12-16T08:10:02.084Z,82.7
2022-12-16T08:15:02.103Z,82.69
2022-12-16T08:20:02.045Z,82.69
2022-12-16T08:25:01.904Z,82.7
2022-12-16T08:30:02.945Z,82.68
2022-12-16T08:35:01.967Z,82.69
2022-12-16T08:40:34.788Z,82.7
2022-12-16T08:45:02.141Z,82.69
2022-12-16T08:50:02.788Z,82.69
2022-12-16T08:55:03.012Z,82.68
2022-12-16T09:00:01.949Z,82.7
2022-12-16T09:05:01.978Z,82.71
2022-12-16T09:10:11.897Z,82.71
2022-12-16T09:15:02.854Z,82.72
2022-12-16T09:20:02.785Z,82.71
2022-12-16T09:25:02.732Z,82.71
2022-12-16T09:30:02.687Z,82.71
2022-12-16T09:35:02.617Z,82.71
2022-12-16T09:40:02.574Z,82.71
2022-12-16T09:45:02.532Z,82.73
2022-12-16T09:50:02.469Z,82.72
2022-12-16T09:55:10.572Z,82.73
2022-12-16T10:00:02.624Z,82.73
2022-12-16T10:05:02.563Z,82.71
2022-12-16T10:10:12.461Z,82.74
2022-12-16T10:15:02.458Z,82.74
2022-12-16T10:20:08.692Z,82.73
2022-12-16T10:25:02.133Z,82.71
2022-12-16T10:30:02.218Z,82.71
2022-12-16T10:35:02.126Z,82.72
2022-12-16T10:40:02.170Z,82.71
2022-12-16T10:45:02.126Z,82.7
2022-12-16T10:50:02.086Z,82.7
2022-12-16T10:55:12.059Z,82.71
2022-12-16T11:00:01.882Z,82.71
2022-12-16T11:05:02.732Z,82.72
2022-12-16T11:10:02.786Z,82.71
2022-12-16T11:15:29.233Z,82.7
2022-12-16T11:20:02.762Z,82.72
2022-12-16T11:25:02.770Z,82.72
2022-12-16T11:30:12.674Z,82.71
2022-12-16T11:35:02.730Z,82.7
2022-12-16T11:40:02.952Z,82.71
2022-12-16T11:45:01.973Z,82.71
2022-12-16T11:50:02.239Z,82.7
2022-12-16T11:55:02.178Z,82.7
2022-12-16T12:00:02.090Z,82.69
2022-12-16T12:05:02.026Z,82.7
2022-12-16T12:10:01.949Z,82.7
2022-12-16T12:15:01.888Z,82.69
2022-12-16T12:20:02.966Z,82.7
2022-12-16T12:25:02.083Z,82.69
2022-12-16T12:30:01.977Z,82.7
2022-12-16T12:35:12.233Z,82.71
2022-12-16T12:40:02.215Z,82.71
2022-12-16T12:45:02.195Z,82.72
2022-12-16T12:50:12.056Z,82.73
2022-12-16T12:55:01.977Z,82.7
2022-12-16T13:00:02.615Z,82.73
2022-12-16T13:05:02.800Z,82.73
2022-12-16T13:10:12.696Z,82.73
2022-12-16T13:15:02.824Z,82.73
2022-12-16T13:20:02.856Z,82.74
2022-12-16T13:25:02.751Z,82.75
2022-12-16T13:30:02.739Z,82.76
2022-12-16T13:35:02.643Z,82.76
2022-12-16T13:40:02.597Z,82.76
2022-12-16T13:45:02.567Z,82.78
2022-12-16T13:50:05.888Z,82.82
2022-12-16T13:55:03.053Z,82.82
2022-12-16T14:00:02.056Z,82.78
2022-12-16T14:05:08.882Z,82.77
2022-12-16T14:10:02.124Z,82.79
2022-12-16T14:15:02.154Z,82.79
2022-12-16T14:20:02.309Z,82.8
2022-12-16T14:25:12.383Z,82.8
2022-12-16T14:30:02.386Z,82.82
2022-12-16T14:35:02.289Z,82.84
2022-12-16T14:40:02.210Z,82.85
2022-12-16T14:45:02.188Z,82.86
2022-12-16T14:50:02.188Z,82.87
2022-12-16T14:55:02.034Z,82.85
2022-12-16T15:00:01.933Z,82.87
2022-12-16T15:05:02.882Z,82.87
2022-12-16T15:10:02.833Z,82.88
2022-12-16T15:15:02.749Z,82.88
2022-12-16T15:20:03.958Z,82.91
2022-12-16T15:25:02.012Z,82.9
2022-12-16T15:30:02.067Z,82.88
2022-12-16T15:35:02.104Z,82.9
2022-12-16T15:40:11.962Z,82.94
2022-12-16T15:45:01.828Z,82.91
2022-12-16T15:50:04.509Z,82.94
2022-12-16T15:55:02.610Z,82.94
2022-12-16T16:00:02.458Z,82.94
2022-12-16T16:05:02.387Z,82.94
2022-12-16T16:10:02.333Z,82.96
2022-12-16T16:15:02.206Z,82.96
2022-12-16T16:20:04.093Z,82.97
2022-12-16T16:25:02.090Z,82.98
2022-12-16T16:30:02.079Z,82.98
2022-12-16T16:35:02.191Z,82.97
2022-12-16T16:40:12.181Z,82.99
2022-12-16T16:45:02.230Z,83.0
2022-12-16T16:50:02.358Z,82.99
2022-12-16T16:55:02.379Z,83.01
2022-12-16T17:00:02.331Z,83.0
2022-12-16T17:05:02.354Z,83.03
2022-12-16T17:10:02.501Z,83.03
2022-12-16T17:15:02.503Z,82.99
2022-12-16T17:20:02.493Z,83.0
2022-12-16T17:25:02.368Z,83.02
2022-12-16T17:30:02.339Z,83.03
2022-12-16T17:35:02.245Z,83.02
2022-12-16T17:40:02.197Z,83.04
2022-12-16T17:45:02.110Z,83.03
2022-12-16T17:50:02.091Z,83.02
2022-12-16T17:55:02.094Z,83.04
2022-12-16T18:00:02.028Z,83.04
2022-12-16T18:05:01.929Z,83.04
2022-12-16T18:10:01.851Z,83.03
2022-12-16T18:15:02.879Z,83.04
2022-12-16T18:20:08.467Z,83.05
2022-12-16T18:25:02.369Z,83.04
2022-12-16T18:30:02.528Z,83.06
2022-12-16T18:35:02.484Z,83.05
2022-12-16T18:40:02.454Z,83.06
2022-12-16T18:45:02.403Z,83.05
2022-12-16T18:50:12.333Z,83.06
2022-12-16T18:55:02.404Z,83.04
2022-12-16T19:00:02.289Z,83.05
2022-12-16T19:05:02.146Z,83.05
2022-12-16T19:10:02.148Z,83.06
2022-12-16T19:15:02.178Z,83.07
2022-12-16T19:20:02.187Z,83.08
2022-12-16T19:25:02.160Z,83.09
2022-12-16T19:30:02.172Z,83.07
2022-12-16T19:35:02.249Z,83.07
2022-12-16T19:40:02.279Z,83.08
2022-12-16T19:45:12.001Z,83.08
2022-12-16T19:50:02.035Z,83.05
2022-12-16T19:55:01.949Z,83.07
2022-12-16T20:00:01.888Z,83.07
2022-12-16T20:05:02.941Z,83.09
2022-12-16T20:10:01.853Z,83.08
2022-12-16T20:15:02.803Z,83.09
2022-12-16T20:20:02.705Z,83.1
2022-12-16T20:25:02.556Z,83.08
2022-12-16T20:30:02.479Z,83.09
2022-12-16T20:35:02.413Z,83.09
2022-12-16T20:40:05.716Z,83.11
2022-12-16T20:45:02.686Z,83.09
2022-12-16T20:50:02.510Z,83.12
2022-12-16T20:55:02.551Z,83.12
2022-12-16T21:00:02.581Z,83.11
2022-12-16T21:05:02.500Z,83.12
2022-12-16T21:10:12.426Z,83.11
2022-12-16T21:15:02.372Z,83.11
2022-12-16T21:20:02.301Z,83.1
2022-12-16T21:25:02.259Z,83.1
2022-12-16T21:30:02.155Z,83.11
2022-12-16T21:35:11.940Z,83.11
2022-12-16T21:40:01.812Z,83.1
2022-12-16T21:45:02.675Z,83.12
2022-12-16T21:50:02.577Z,83.12
2022-12-16T21:55:02.427Z,83.13
2022-12-16T22:00:02.475Z,83.12
2022-12-16T22:05:20.756Z,83.14
2022-12-16T22:10:07.822Z,83.12
2022-12-16T22:15:08.637Z,83.14
2022-12-16T22:20:08.211Z,83.13
2022-12-16T22:25:14.251Z,83.12
2022-12-16T22:30:08.368Z,83.13
2022-12-16T22:35:08.370Z,83.14
2022-12-16T22:40:08.156Z,83.12
2022-12-16T22:45:07.941Z,83.14
2022-12-16T22:50:07.745Z,83.13
2022-12-16T22:55:09.685Z,83.15
2022-12-16T23:00:17.353Z,83.15
2022-12-16T23:05:08.260Z,83.14
2022-12-16T23:10:08.117Z,83.15
2022-12-16T23:15:08.719Z,83.16
2022-12-16T23:20:08.493Z,83.17
2022-12-16T23:25:08.476Z,83.17
2022-12-16T23:30:18.418Z,83.17
2022-12-16T23:35:08.227Z,83.17
2022-12-16T23:40:08.067Z,83.17
2022-12-16T23:45:07.853Z,83.19
2022-12-16T23:50:14.060Z,83.19
2022-12-16T23:55:13.581Z,83.18
